createdAt,value
2019-04-11T00:02:16.415Z,5.60
2019-04-11T00:04:46.315Z,5.60
2019-04-11T00:07:16.206Z,5.60
2019-04-11T00:09:47.955Z,5.60
2019-04-11T00:12:18.712Z,5.50
2019-04-11T00:14:48.407Z,5.50
2019-04-11T00:17:17.531Z,5.40
2019-04-11T00:19:47.498Z,5.40
2019-04-11T00:22:17.382Z,5.50
2019-04-11T00:24:47.197Z,5.50
2019-04-11T00:27:17.111Z,5.50
2019-04-11T00:29:49.680Z,5.40
2019-04-11T00:32:19.172Z,5.40
2019-04-11T00:34:48.191Z,5.40
2019-04-11T00:37:17.162Z,5.40
2019-04-11T00:39:46.382Z,5.40
2019-04-11T00:42:16.535Z,5.40
2019-04-11T00:44:47.956Z,5.40
2019-04-11T00:47:17.166Z,5.40
2019-04-11T00:49:46.505Z,5.40
2019-04-11T00:52:16.253Z,5.40
2019-04-11T00:54:45.384Z,5.40
2019-04-11T00:57:14.887Z,5.40
2019-04-11T00:59:44.677Z,5.40
2019-04-11T01:02:15.518Z,5.40
2019-04-11T01:04:45.347Z,5.30
2019-04-11T01:07:14.549Z,5.40
2019-04-11T01:09:44.308Z,5.40
2019-04-11T01:12:13.726Z,5.40
2019-04-11T01:14:43.283Z,5.40
2019-04-11T01:17:14.847Z,5.30
2019-04-11T01:19:44.391Z,5.30
2019-04-11T01:22:14.023Z,5.40
2019-04-11T01:24:43.984Z,5.40
2019-04-11T01:27:13.900Z,5.40
2019-04-11T01:29:43.927Z,5.30
2019-04-11T01:32:13.911Z,5.30
2019-04-11T01:34:44.526Z,5.30
2019-04-11T01:37:13.966Z,5.30
2019-04-11T01:39:53.722Z,5.20
2019-04-11T01:42:25.039Z,5.10
2019-04-11T01:44:54.875Z,5.10
2019-04-11T01:47:53.933Z,5.10
2019-04-11T01:50:25.162Z,5.00
2019-04-11T01:52:55.006Z,5.00
2019-04-11T01:55:24.164Z,4.90
2019-04-11T01:57:54.086Z,4.90
2019-04-11T02:00:30.855Z,4.90
2019-04-11T02:03:01.454Z,4.80
2019-04-11T02:05:34.984Z,4.80
2019-04-11T02:08:04.259Z,4.80
2019-04-11T02:10:34.873Z,4.70
2019-04-11T02:13:05.846Z,4.70
2019-04-11T02:15:38.789Z,4.70
2019-04-11T02:18:07.665Z,4.60
2019-04-11T02:20:36.967Z,4.50
2019-04-11T02:23:10.910Z,4.50
2019-04-11T02:25:42.779Z,4.50
2019-04-11T02:28:13.203Z,4.50
2019-04-11T02:30:45.936Z,4.60
2019-04-11T02:33:16.360Z,4.60
2019-04-11T02:35:47.105Z,4.60
2019-04-11T02:38:16.816Z,4.60
2019-04-11T02:40:47.962Z,4.60
2019-04-11T02:43:18.371Z,4.60
2019-04-11T02:45:58.120Z,4.60
2019-04-11T02:48:20.683Z,4.60
2019-04-11T02:50:50.759Z,4.70
2019-04-11T02:53:21.305Z,4.70
2019-04-11T02:55:52.160Z,4.60
2019-04-11T02:58:23.069Z,4.50
2019-04-11T03:00:57.566Z,4.50
2019-04-11T03:03:27.402Z,4.40
2019-04-11T03:05:58.144Z,4.40
2019-04-11T03:08:29.824Z,4.50
2019-04-11T03:10:59.527Z,4.40
2019-04-11T03:13:29.579Z,4.40
2019-04-11T03:16:11.405Z,4.40
2019-04-11T03:18:49.443Z,4.40
2019-04-11T03:21:06.107Z,4.30
2019-04-11T03:23:37.269Z,4.30
2019-04-11T03:26:07.524Z,4.30
2019-04-11T03:28:40.235Z,4.30
2019-04-11T03:31:41.737Z,4.30
2019-04-11T03:34:44.211Z,4.30
2019-04-11T03:39:07.544Z,4.30
2019-04-11T03:41:26.983Z,4.30
2019-04-11T03:43:58.166Z,4.40
2019-04-11T03:46:32.636Z,4.40
2019-04-11T03:48:59.893Z,4.40
2019-04-11T03:51:22.697Z,4.50
2019-04-11T03:53:56.780Z,4.50
2019-04-11T03:56:24.640Z,4.50
2019-04-11T03:58:57.644Z,4.60
2019-04-11T04:01:27.118Z,4.60
2019-04-11T04:04:00.607Z,4.50
2019-04-11T04:06:31.041Z,4.50
2019-04-11T04:09:02.261Z,4.50
2019-04-11T04:11:32.619Z,4.50
2019-04-11T04:14:04.245Z,4.50
2019-04-11T04:16:56.497Z,4.50
2019-04-11T04:19:27.087Z,4.50
2019-04-11T04:22:13.447Z,4.50
2019-04-11T04:24:42.735Z,4.40
2019-04-11T04:27:13.196Z,4.50
2019-04-11T04:29:46.666Z,4.40
2019-04-11T04:32:16.400Z,4.40
2019-04-11T04:34:50.734Z,4.40
2019-04-11T04:37:21.397Z,4.40
2019-04-11T04:40:10.720Z,4.40
2019-04-11T04:42:27.413Z,4.30
2019-04-11T04:44:58.281Z,4.30
2019-04-11T04:47:37.147Z,4.40
2019-04-11T04:49:59.269Z,4.40
2019-04-11T04:52:29.665Z,4.50
2019-04-11T04:55:01.534Z,4.50
2019-04-11T04:57:31.728Z,4.40
2019-04-11T05:00:02.666Z,4.50
2019-04-11T05:02:32.757Z,4.60
2019-04-11T05:05:04.217Z,4.60
2019-04-11T05:07:39.984Z,4.50
2019-04-11T05:10:08.908Z,4.50
2019-04-11T05:12:38.827Z,4.60
2019-04-11T05:15:09.924Z,4.50
2019-04-11T05:17:41.791Z,4.60
2019-04-11T05:20:10.197Z,4.70
2019-04-11T05:22:39.400Z,4.70
2019-04-11T05:25:08.488Z,4.80
2019-04-11T05:27:37.847Z,4.90
2019-04-11T05:30:08.280Z,4.90
2019-04-11T05:32:39.541Z,4.80
2019-04-11T05:35:09.352Z,4.90
2019-04-11T05:37:40.481Z,4.90
2019-04-11T05:40:09.650Z,4.90
2019-04-11T05:42:39.636Z,5.00
2019-04-11T05:45:17.333Z,5.10
2019-04-11T05:47:43.490Z,5.20
2019-04-11T05:50:18.362Z,5.30
2019-04-11T05:52:50.331Z,5.40
2019-04-11T05:55:19.590Z,5.40
2019-04-11T05:57:48.548Z,5.50
2019-04-11T06:00:19.432Z,5.30
2019-04-11T06:02:53.301Z,5.40
2019-04-11T06:05:27.779Z,5.60
2019-04-11T06:07:57.814Z,5.60
2019-04-11T06:10:37.052Z,5.80
2019-04-11T06:13:12.648Z,5.80
2019-04-11T06:15:49.286Z,5.80
2019-04-11T06:18:41.910Z,5.60
2019-04-11T06:21:16.490Z,5.60
2019-04-11T06:23:47.756Z,5.70
2019-04-11T06:26:24.882Z,5.80
2019-04-11T06:28:56.903Z,5.90
2019-04-11T06:31:45.489Z,6.00
2019-04-11T06:34:15.560Z,6.10
2019-04-11T06:36:58.105Z,6.20
2019-04-11T06:39:37.871Z,6.10
2019-04-11T06:42:19.180Z,6.00
2019-04-11T06:44:50.136Z,6.10
2019-04-11T06:47:36.765Z,6.20
2019-04-11T06:50:17.383Z,6.50
2019-04-11T06:52:48.715Z,6.60
2019-04-11T06:55:20.365Z,6.60
2019-04-11T06:58:03.203Z,6.60
2019-04-11T07:00:33.604Z,6.60
2019-04-11T07:03:05.605Z,6.70
2019-04-11T07:05:40.637Z,6.70
2019-04-11T07:08:10.607Z,6.80
2019-04-11T07:10:48.779Z,7.00
2019-04-11T07:13:22.718Z,7.10
2019-04-11T07:15:52.878Z,7.20
2019-04-11T07:18:37.739Z,6.90
2019-04-11T07:21:08.895Z,6.90
2019-04-11T07:23:55.776Z,6.90
2019-04-11T07:26:27.371Z,6.90
2019-04-11T07:29:15.254Z,6.90
2019-04-11T07:31:53.039Z,7.30
2019-04-11T07:34:33.138Z,7.20
2019-04-11T07:37:19.118Z,7.10
2019-04-11T07:40:00.649Z,7.20
2019-04-11T07:42:52.045Z,7.10
2019-04-11T07:45:34.402Z,7.20
2019-04-11T07:48:12.868Z,7.60
2019-04-11T07:50:42.257Z,7.70
2019-04-11T07:53:13.380Z,7.90
2019-04-11T07:55:44.416Z,7.70
2019-04-11T07:58:21.510Z,7.70
2019-04-11T08:01:06.254Z,8.00
2019-04-11T08:03:43.268Z,8.20
2019-04-11T08:06:31.065Z,8.40
2019-04-11T08:09:11.122Z,8.40
2019-04-11T08:11:42.177Z,8.50
2019-04-11T08:14:21.625Z,8.10
2019-04-11T08:17:01.668Z,8.20
